Terminal Aerodrome Forecast
Issued by NWS Amarillo, TX

Home | Current Version | Previous Version | Text Only | Print | Product List | Glossary On
Versions: 1 2 3 4 5 6 7 8 9 10 11 12 13 14
943
FTUS44 KAMA 232337
TAFAMA
TAF
KAMA 232337Z 2400/2424 27020G30KT P6SM SKC
     FM240300 31015G25KT P6SM SKC
     FM240700 34013KT P6SM FEW300=

USA.gov is the U.S. government's official web portal to all federal, state and local government web resources and services.